Time;durP1;ratioP1;P1;durP2;ratioP2;P2;SDS_P1;SDS_P2;PMS_P1;PMS_P2;Temp;Humidity;BMP_temperature;BMP_pressure;BME280_temperature;BME280_humidity;BME280_pressure;Samples;Min_cycle;Max_cycle;Signal;HPM_P1;HPM_P2
2022/03/28 00:01:15;;;;;;;;;;;10.70;76.80;;;;;;5058529;28;19958;-67
2022/03/28 00:03:40;;;;;;;;;;;10.70;76.80;;;;;;5050359;28;19979;-68
2022/03/28 00:06:09;;;;;;;;;;;10.70;76.90;;;;;;5057633;28;19909;-67
2022/03/28 00:08:35;;;;;;;;;;;10.70;76.90;;;;;;5057806;28;20675;-67
2022/03/28 00:11:00;;;;;;;;;;;10.70;76.80;;;;;;5055401;28;19916;-67
2022/03/28 00:13:26;;;;;;;;;;;10.70;76.70;;;;;;5057298;28;19916;-67
2022/03/28 00:15:52;;;;;;;;;;;10.60;76.80;;;;;;5061142;28;20012;-67
2022/03/28 00:18:17;;;;;;;;;;;10.60;76.90;;;;;;5038370;28;19912;-67
2022/03/28 00:20:46;;;;;;;;;;;10.60;76.90;;;;;;5039054;28;20526;-67
2022/03/28 00:23:12;;;;;;;;;;;10.50;76.80;;;;;;5059025;28;20415;-67
2022/03/28 00:25:40;;;;;;;;;;;10.60;77.00;;;;;;5059117;28;19948;-67
2022/03/28 00:28:06;;;;;;;;;;;10.50;77.20;;;;;;5057560;28;20543;-67
2022/03/28 00:30:31;;;;;;;;;;;10.50;77.00;;;;;;5059362;28;19951;-67
2022/03/28 00:32:59;;;;;;;;;;;10.50;77.30;;;;;;5065310;28;19948;-67
2022/03/28 00:35:25;;;;;;;;;;;10.40;77.30;;;;;;5060367;28;19912;-67
2022/03/28 00:37:51;;;;;;;;;;;10.40;77.30;;;;;;5062752;28;19924;-67
2022/03/28 00:40:17;;;;;;;;;;;10.40;77.10;;;;;;5063015;28;19913;-67
2022/03/28 00:42:43;;;;;;;;;;;10.40;77.30;;;;;;5061673;28;19921;-67
2022/03/28 00:45:09;;;;;;;;;;;10.30;77.30;;;;;;5063162;28;19913;-67
2022/03/28 00:47:35;;;;;;;;;;;10.30;77.50;;;;;;5062157;28;19916;-67
2022/03/28 00:50:01;;;;;;;;;;;10.30;77.70;;;;;;5062682;28;19916;-67
2022/03/28 00:52:26;;;;;;;;;;;10.30;77.70;;;;;;5063049;28;19916;-67
2022/03/28 00:54:52;;;;;;;;;;;10.20;77.70;;;;;;5061532;28;19940;-67
2022/03/28 00:57:17;;;;;;;;;;;10.20;77.90;;;;;;5061784;28;20199;-67
2022/03/28 00:59:43;;;;;;;;;;;10.20;77.70;;;;;;5065401;28;19909;-67
2022/03/28 01:02:09;;;;;;;;;;;10.20;77.80;;;;;;5058631;28;19916;-67
2022/03/28 01:04:35;;;;;;;;;;;10.10;77.90;;;;;;5035800;28;20038;-67
2022/03/28 01:07:00;;;;;;;;;;;10.20;77.90;;;;;;5074428;28;20647;-67
2022/03/28 01:09:26;;;;;;;;;;;10.10;77.90;;;;;;5062022;28;19947;-67
2022/03/28 01:11:52;;;;;;;;;;;10.10;78.00;;;;;;5061510;28;20050;-67
2022/03/28 01:14:17;;;;;;;;;;;10.10;78.00;;;;;;5063002;28;19978;-67
2022/03/28 01:19:28;;;;;;;;;;;10.00;78.00;;;;;;5057245;28;20015;-67
2022/03/28 01:21:53;;;;;;;;;;;10.00;78.10;;;;;;5058755;28;19995;-67
2022/03/28 01:24:19;;;;;;;;;;;10.00;78.10;;;;;;5051294;28;20294;-67
2022/03/28 01:26:45;;;;;;;;;;;10.00;78.10;;;;;;5056011;28;20038;-67
2022/03/28 01:29:12;;;;;;;;;;;10.00;78.20;;;;;;5062040;28;19916;-67
2022/03/28 01:31:38;;;;;;;;;;;9.90;78.10;;;;;;5047489;28;19914;-67
2022/03/28 01:34:04;;;;;;;;;;;9.90;78.20;;;;;;5060797;28;19934;-67
2022/03/28 01:36:30;;;;;;;;;;;9.90;78.20;;;;;;5060673;28;19912;-67
2022/03/28 01:38:55;;;;;;;;;;;9.90;78.30;;;;;;5057784;28;19913;-67
2022/03/28 01:41:20;;;;;;;;;;;9.90;78.20;;;;;;5061712;28;19909;-67
2022/03/28 01:43:46;;;;;;;;;;;9.80;78.20;;;;;;5045044;28;19919;-67
2022/03/28 01:46:12;;;;;;;;;;;9.80;78.20;;;;;;5046115;28;19963;-67
2022/03/28 01:48:37;;;;;;;;;;;9.80;78.10;;;;;;5055288;28;20365;-67
2022/03/28 01:51:03;;;;;;;;;;;9.80;78.20;;;;;;5046121;28;19992;-67
2022/03/28 01:53:28;;;;;;;;;;;9.80;78.30;;;;;;5058359;28;20034;-67
2022/03/28 01:55:54;;;;;;;;;;;9.80;78.30;;;;;;5059203;28;20262;-67
2022/03/28 01:58:19;;;;;;;;;;;9.70;78.30;;;;;;5061372;28;19917;-67
2022/03/28 02:00:45;;;;;;;;;;;9.70;78.20;;;;;;5058736;28;19963;-67
2022/03/28 02:03:10;;;;;;;;;;;9.70;78.30;;;;;;5048119;28;19923;-67
2022/03/28 02:05:36;;;;;;;;;;;9.70;78.20;;;;;;5058978;28;19909;-68
2022/03/28 02:08:02;;;;;;;;;;;9.70;78.30;;;;;;5034210;28;20565;-67
2022/03/28 02:10:27;;;;;;;;;;;9.70;78.30;;;;;;5065458;28;19909;-67
2022/03/28 02:12:53;;;;;;;;;;;9.60;78.30;;;;;;5032254;28;19916;-68
2022/03/28 02:15:20;;;;;;;;;;;9.60;78.30;;;;;;5058789;28;19916;-67
2022/03/28 02:17:46;;;;;;;;;;;9.60;78.30;;;;;;5060499;28;20409;-68
2022/03/28 02:20:11;;;;;;;;;;;9.60;78.30;;;;;;5061442;28;20623;-68
2022/03/28 02:22:37;;;;;;;;;;;9.60;78.30;;;;;;5060095;28;19996;-67
2022/03/28 02:25:04;;;;;;;;;;;9.50;78.30;;;;;;5062684;28;19916;-67
2022/03/28 02:27:29;;;;;;;;;;;9.50;78.30;;;;;;5059895;28;19950;-67
2022/03/28 02:29:55;;;;;;;;;;;9.50;78.30;;;;;;5059926;28;20037;-68
2022/03/28 02:32:20;;;;;;;;;;;9.50;78.50;;;;;;5053697;28;19920;-67
2022/03/28 02:34:46;;;;;;;;;;;9.50;78.40;;;;;;5060522;28;20107;-68
2022/03/28 02:37:11;;;;;;;;;;;9.50;78.40;;;;;;5058680;28;19931;-68
2022/03/28 02:39:37;;;;;;;;;;;9.40;78.40;;;;;;5059319;28;19916;-68
2022/03/28 02:42:03;;;;;;;;;;;9.40;78.30;;;;;;5054920;28;19934;-68
2022/03/28 02:44:28;;;;;;;;;;;9.40;78.40;;;;;;5057967;28;19981;-67
2022/03/28 02:46:54;;;;;;;;;;;9.40;78.50;;;;;;5036462;28;20003;-67
2022/03/28 02:49:19;;;;;;;;;;;9.40;78.50;;;;;;5050789;28;19916;-68
2022/03/28 02:51:45;;;;;;;;;;;9.40;78.40;;;;;;5064419;28;20066;-68
2022/03/28 02:54:11;;;;;;;;;;;9.40;78.50;;;;;;5044060;28;19917;-68
2022/03/28 02:56:37;;;;;;;;;;;9.40;78.60;;;;;;5055522;28;20330;-68
2022/03/28 02:59:03;;;;;;;;;;;9.30;78.40;;;;;;5056791;28;20049;-67
2022/03/28 03:01:28;;;;;;;;;;;9.30;78.50;;;;;;5040356;28;20407;-68
2022/03/28 03:03:54;;;;;;;;;;;9.30;78.50;;;;;;5043148;28;20569;-68
2022/03/28 03:06:19;;;;;;;;;;;9.30;78.60;;;;;;5050116;28;20455;-68
2022/03/28 03:08:45;;;;;;;;;;;9.30;78.60;;;;;;5036657;28;19917;-68
2022/03/28 03:11:10;;;;;;;;;;;9.30;78.60;;;;;;5057887;28;20029;-68
2022/03/28 03:13:36;;;;;;;;;;;9.20;78.50;;;;;;5054663;28;20458;-68
2022/03/28 03:16:03;;;;;;;;;;;9.20;78.50;;;;;;5058702;28;19916;-67
2022/03/28 03:18:29;;;;;;;;;;;9.20;78.50;;;;;;5031434;28;19935;-68
2022/03/28 03:20:54;;;;;;;;;;;9.20;78.50;;;;;;5058091;28;19921;-68
2022/03/28 03:23:20;;;;;;;;;;;9.20;78.70;;;;;;5053286;28;20069;-67
2022/03/28 03:25:45;;;;;;;;;;;9.20;78.70;;;;;;5058255;28;19913;-68
2022/03/28 03:28:11;;;;;;;;;;;9.20;78.70;;;;;;5059664;28;19912;-68
2022/03/28 03:30:36;;;;;;;;;;;9.20;78.70;;;;;;5054934;28;19916;-68
2022/03/28 03:33:02;;;;;;;;;;;9.10;78.70;;;;;;5055118;28;19931;-68
2022/03/28 03:35:27;;;;;;;;;;;9.10;78.70;;;;;;5062294;28;19912;-68
2022/03/28 03:37:53;;;;;;;;;;;9.10;78.70;;;;;;5055137;28;21488;-68
2022/03/28 03:40:18;;;;;;;;;;;9.10;78.70;;;;;;5041100;28;19912;-68
2022/03/28 03:42:44;;;;;;;;;;;9.10;78.70;;;;;;5061569;28;19916;-68
2022/03/28 03:45:10;;;;;;;;;;;9.10;78.70;;;;;;5032489;28;19921;-68
2022/03/28 03:47:35;;;;;;;;;;;9.00;78.80;;;;;;5030844;28;19990;-68
2022/03/28 03:50:01;;;;;;;;;;;9.00;78.70;;;;;;5058443;28;20389;-68
2022/03/28 03:52:27;;;;;;;;;;;9.00;78.70;;;;;;5061030;28;19959;-68
2022/03/28 03:54:52;;;;;;;;;;;9.00;78.60;;;;;;5056685;28;19947;-68
2022/03/28 03:57:18;;;;;;;;;;;9.00;78.70;;;;;;5029376;28;19917;-68
2022/03/28 03:59:43;;;;;;;;;;;9.00;78.80;;;;;;5061394;28;19924;-68
2022/03/28 04:02:09;;;;;;;;;;;9.00;78.70;;;;;;5060061;28;19912;-68
2022/03/28 04:04:34;;;;;;;;;;;9.00;78.60;;;;;;5036735;28;19999;-68
2022/03/28 04:07:00;;;;;;;;;;;8.90;78.80;;;;;;5052917;28;19924;-68
2022/03/28 04:09:25;;;;;;;;;;;8.90;78.80;;;;;;5062382;28;19912;-68
2022/03/28 04:11:51;;;;;;;;;;;8.90;78.80;;;;;;5057166;28;19916;-68
2022/03/28 04:14:16;;;;;;;;;;;8.90;78.80;;;;;;5053343;28;19909;-68
2022/03/28 04:16:42;;;;;;;;;;;8.90;78.80;;;;;;5055608;28;19927;-68
2022/03/28 04:19:08;;;;;;;;;;;8.90;78.80;;;;;;5060632;28;19917;-68
2022/03/28 04:21:34;;;;;;;;;;;8.90;79.50;;;;;;5052052;28;19908;-68
2022/03/28 04:23:59;;;;;;;;;;;8.80;78.80;;;;;;5050611;28;19913;-67
2022/03/28 04:26:25;;;;;;;;;;;8.80;78.70;;;;;;5060203;28;19963;-68
2022/03/28 04:28:50;;;;;;;;;;;8.80;78.90;;;;;;5056037;28;19924;-68
2022/03/28 04:31:16;;;;;;;;;;;8.80;78.80;;;;;;5052353;28;20482;-68
2022/03/28 04:33:41;;;;;;;;;;;8.80;78.90;;;;;;5051658;28;19916;-68
2022/03/28 04:36:07;;;;;;;;;;;8.80;78.80;;;;;;5061296;28;19908;-68
2022/03/28 04:38:33;;;;;;;;;;;8.80;79.00;;;;;;5056702;28;19913;-68
2022/03/28 04:40:58;;;;;;;;;;;8.80;78.90;;;;;;5054014;28;19943;-68
2022/03/28 04:43:24;;;;;;;;;;;8.80;78.90;;;;;;5031550;28;19909;-68
2022/03/28 04:45:49;;;;;;;;;;;8.70;78.90;;;;;;5041836;28;19928;-68
2022/03/28 04:48:14;;;;;;;;;;;8.70;78.90;;;;;;5055248;28;20520;-68
2022/03/28 04:50:40;;;;;;;;;;;8.70;78.80;;;;;;5051588;28;19919;-68
2022/03/28 04:53:06;;;;;;;;;;;8.70;78.90;;;;;;5055391;28;19989;-68
2022/03/28 04:55:32;;;;;;;;;;;8.70;78.90;;;;;;5037732;28;19917;-68
2022/03/28 04:57:57;;;;;;;;;;;8.70;78.90;;;;;;5050898;28;20534;-68
2022/03/28 05:00:23;;;;;;;;;;;8.70;78.90;;;;;;5059644;28;19916;-68
2022/03/28 05:02:49;;;;;;;;;;;8.70;79.00;;;;;;5054925;28;19909;-68
2022/03/28 05:05:14;;;;;;;;;;;8.70;79.00;;;;;;5055264;28;19916;-68
2022/03/28 05:07:40;;;;;;;;;;;8.60;79.00;;;;;;5055444;28;20654;-68
2022/03/28 05:10:06;;;;;;;;;;;8.60;79.00;;;;;;5053728;28;19916;-68
2022/03/28 05:12:32;;;;;;;;;;;8.60;78.90;;;;;;5057124;28;20062;-68
2022/03/28 05:14:57;;;;;;;;;;;8.60;79.00;;;;;;5057236;28;19920;-68
2022/03/28 05:17:24;;;;;;;;;;;8.60;79.10;;;;;;5064328;28;20246;-68
2022/03/28 05:19:50;;;;;;;;;;;8.60;79.00;;;;;;5044713;28;20003;-68
2022/03/28 05:22:15;;;;;;;;;;;8.50;78.90;;;;;;5034279;28;19917;-68
2022/03/28 05:24:41;;;;;;;;;;;8.50;79.10;;;;;;5057318;28;20306;-67
2022/03/28 05:27:07;;;;;;;;;;;8.60;79.00;;;;;;5059195;28;19920;-68
2022/03/28 05:29:32;;;;;;;;;;;8.60;79.00;;;;;;5056991;28;20491;-68
2022/03/28 05:31:58;;;;;;;;;;;8.50;78.90;;;;;;5032167;28;19916;-68
2022/03/28 05:34:23;;;;;;;;;;;8.50;79.00;;;;;;5047821;28;19916;-68
2022/03/28 05:36:49;;;;;;;;;;;8.50;79.00;;;;;;5040373;28;19923;-68
2022/03/28 05:39:14;;;;;;;;;;;8.50;79.10;;;;;;5058088;28;19927;-68
2022/03/28 05:41:40;;;;;;;;;;;8.50;79.10;;;;;;5061019;28;20632;-68
2022/03/28 05:44:06;;;;;;;;;;;8.50;79.10;;;;;;5037934;28;20322;-68
2022/03/28 05:46:32;;;;;;;;;;;8.50;79.10;;;;;;5055776;28;19927;-68
2022/03/28 05:48:57;;;;;;;;;;;8.50;79.10;;;;;;5053307;28;19932;-68
2022/03/28 05:51:23;;;;;;;;;;;8.50;79.10;;;;;;5055081;28;20458;-68
2022/03/28 05:53:49;;;;;;;;;;;8.50;79.00;;;;;;5058165;28;19989;-68
2022/03/28 05:56:14;;;;;;;;;;;8.50;79.10;;;;;;5055019;28;20482;-68
2022/03/28 05:58:40;;;;;;;;;;;8.50;79.10;;;;;;5055532;28;19920;-68
2022/03/28 06:01:05;;;;;;;;;;;8.50;79.10;;;;;;5064563;28;19957;-68
2022/03/28 06:03:31;;;;;;;;;;;8.50;79.00;;;;;;5043915;28;19913;-68
2022/03/28 06:05:56;;;;;;;;;;;8.50;79.00;;;;;;5059130;28;19967;-68
2022/03/28 06:08:22;;;;;;;;;;;8.50;79.00;;;;;;5038989;28;19912;-68
2022/03/28 06:10:47;;;;;;;;;;;8.50;79.00;;;;;;5062573;28;19991;-68
2022/03/28 06:13:13;;;;;;;;;;;8.50;79.00;;;;;;5054509;28;20003;-68
2022/03/28 06:15:38;;;;;;;;;;;8.50;79.10;;;;;;5051350;28;20420;-68
2022/03/28 06:18:04;;;;;;;;;;;8.50;79.10;;;;;;5059523;28;20597;-68
2022/03/28 06:20:30;;;;;;;;;;;8.50;79.10;;;;;;5057141;28;19912;-68
2022/03/28 06:22:56;;;;;;;;;;;8.50;79.10;;;;;;5053250;28;19913;-68
2022/03/28 06:25:22;;;;;;;;;;;8.50;79.10;;;;;;5056669;28;19908;-68
2022/03/28 06:27:48;;;;;;;;;;;8.50;79.10;;;;;;5036956;28;19919;-68
2022/03/28 06:30:13;;;;;;;;;;;8.50;79.10;;;;;;5056346;28;19920;-68
2022/03/28 06:32:40;;;;;;;;;;;8.50;79.00;;;;;;5029647;28;20365;-68
2022/03/28 06:35:07;;;;;;;;;;;8.50;78.90;;;;;;5065116;28;19912;-67
2022/03/28 06:37:33;;;;;;;;;;;8.50;79.00;;;;;;5034964;28;20361;-68
2022/03/28 06:39:59;;;;;;;;;;;8.60;79.00;;;;;;5055904;28;20082;-68
2022/03/28 06:42:25;;;;;;;;;;;8.60;78.90;;;;;;5037337;28;19913;-68
2022/03/28 06:44:51;;;;;;;;;;;8.50;79.10;;;;;;5045148;28;19912;-68
2022/03/28 06:47:16;;;;;;;;;;;8.60;79.00;;;;;;5054658;28;19920;-68
2022/03/28 06:49:42;;;;;;;;;;;8.60;78.90;;;;;;5035563;28;19959;-68
2022/03/28 06:52:08;;;;;;;;;;;8.60;78.90;;;;;;5064149;28;19928;-68
2022/03/28 06:54:35;;;;;;;;;;;8.60;78.90;;;;;;5031288;28;19947;-68
2022/03/28 06:57:02;;;;;;;;;;;8.60;78.90;;;;;;5051869;28;19920;-68
2022/03/28 06:59:29;;;;;;;;;;;8.60;78.90;;;;;;5054477;28;20562;-68
2022/03/28 07:01:55;;;;;;;;;;;8.60;78.70;;;;;;5059625;28;20424;-68
2022/03/28 07:04:21;;;;;;;;;;;8.60;78.70;;;;;;5031889;28;19912;-68
2022/03/28 07:06:47;;;;;;;;;;;8.70;78.80;;;;;;5054306;28;19916;-68
2022/03/28 07:09:13;;;;;;;;;;;8.70;78.70;;;;;;5060064;28;19912;-68
2022/03/28 07:11:38;;;;;;;;;;;8.70;78.70;;;;;;5042172;28;19917;-68
2022/03/28 07:14:04;;;;;;;;;;;8.70;78.70;;;;;;5052727;28;19917;-68
2022/03/28 07:16:29;;;;;;;;;;;8.70;78.60;;;;;;5049161;28;19913;-68
2022/03/28 07:18:55;;;;;;;;;;;8.70;78.70;;;;;;5058617;28;20440;-68
2022/03/28 07:21:20;;;;;;;;;;;8.80;78.50;;;;;;5054801;28;19912;-68
2022/03/28 07:23:48;;;;;;;;;;;8.80;78.40;;;;;;5052670;28;19912;-68
2022/03/28 07:26:14;;;;;;;;;;;8.80;78.20;;;;;;5057748;28;20589;-68
2022/03/28 07:28:39;;;;;;;;;;;8.80;78.00;;;;;;5058659;28;19936;-68
2022/03/28 07:31:08;;;;;;;;;;;8.90;77.90;;;;;;5053453;28;20587;-68
2022/03/28 07:33:33;;;;;;;;;;;8.90;77.80;;;;;;5019206;28;19912;-68
2022/03/28 07:35:59;;;;;;;;;;;9.00;77.70;;;;;;5045090;28;19913;-68
2022/03/28 07:38:24;;;;;;;;;;;9.00;77.60;;;;;;5049840;28;19913;-68
2022/03/28 07:40:50;;;;;;;;;;;9.10;77.80;;;;;;5052763;28;19995;-68
2022/03/28 07:43:15;;;;;;;;;;;9.20;77.30;;;;;;5053054;28;20004;-68
2022/03/28 07:45:41;;;;;;;;;;;9.20;76.90;;;;;;5056626;28;20011;-68
2022/03/28 07:48:07;;;;;;;;;;;9.30;77.00;;;;;;5053536;28;19916;-68
2022/03/28 07:50:34;;;;;;;;;;;9.30;76.70;;;;;;5055396;28;20408;-68
2022/03/28 07:53:00;;;;;;;;;;;9.40;76.50;;;;;;5061207;28;19917;-68
2022/03/28 07:55:27;;;;;;;;;;;9.50;76.20;;;;;;5055392;28;19912;-68
2022/03/28 07:57:52;;;;;;;;;;;9.50;76.30;;;;;;5050142;28;20531;-68
2022/03/28 08:00:19;;;;;;;;;;;9.60;76.10;;;;;;5057206;28;20019;-68
2022/03/28 08:02:44;;;;;;;;;;;9.70;75.80;;;;;;5051890;28;19923;-68
2022/03/28 08:05:10;;;;;;;;;;;9.80;75.60;;;;;;5054337;28;20553;-68
2022/03/28 08:07:36;;;;;;;;;;;9.90;75.50;;;;;;5051963;28;19916;-68
2022/03/28 08:10:02;;;;;;;;;;;10.00;75.20;;;;;;5061675;28;19986;-68
2022/03/28 08:12:28;;;;;;;;;;;10.10;75.40;;;;;;5048606;28;20403;-68
2022/03/28 08:14:54;;;;;;;;;;;10.20;74.80;;;;;;5052313;28;19913;-68
2022/03/28 08:17:20;;;;;;;;;;;10.20;74.50;;;;;;5036337;28;20294;-68
2022/03/28 08:19:46;;;;;;;;;;;10.30;74.30;;;;;;5058819;28;19912;-68
2022/03/28 08:22:11;;;;;;;;;;;10.40;74.10;;;;;;5051853;28;19912;-68
2022/03/28 08:24:37;;;;;;;;;;;10.40;73.80;;;;;;5057720;28;20407;-68
2022/03/28 08:27:03;;;;;;;;;;;10.50;73.70;;;;;;5057653;28;19967;-68
2022/03/28 08:29:28;;;;;;;;;;;10.60;74.00;;;;;;5058447;28;20047;-68
2022/03/28 08:31:54;;;;;;;;;;;10.60;73.30;;;;;;5040020;28;19921;-68
2022/03/28 08:34:20;;;;;;;;;;;10.70;73.10;;;;;;5056217;28;19912;-68
2022/03/28 08:36:45;;;;;;;;;;;10.80;73.00;;;;;;5061188;28;19922;-68
2022/03/28 08:39:11;;;;;;;;;;;10.90;72.90;;;;;;5036767;28;19943;-68
2022/03/28 08:41:36;;;;;;;;;;;10.90;72.70;;;;;;5049890;28;19913;-68
2022/03/28 08:44:02;;;;;;;;;;;11.00;72.60;;;;;;5076306;28;20062;-68
2022/03/28 08:46:29;;;;;;;;;;;11.10;72.40;;;;;;5055718;28;19992;-68
2022/03/28 08:48:55;;;;;;;;;;;11.10;72.20;;;;;;5053856;28;20654;-68
2022/03/28 08:51:21;;;;;;;;;;;11.20;72.10;;;;;;5057443;28;19975;-68
2022/03/28 08:53:47;;;;;;;;;;;11.20;72.20;;;;;;5062179;28;19913;-68
2022/03/28 08:56:12;;;;;;;;;;;11.30;72.10;;;;;;5058242;28;19919;-68
2022/03/28 08:58:38;;;;;;;;;;;11.30;72.10;;;;;;5051563;28;20004;-68
2022/03/28 09:01:04;;;;;;;;;;;11.30;72.10;;;;;;5062933;28;19951;-68
2022/03/28 09:03:36;;;;;;;;;;;11.40;72.30;;;;;;5058485;28;19945;-68
2022/03/28 09:06:22;;;;;;;;;;;11.40;72.10;;;;;;5053117;28;20574;-68
2022/03/28 09:08:47;;;;;;;;;;;11.40;72.10;;;;;;5040787;28;20097;-67
2022/03/28 09:11:20;;;;;;;;;;;11.50;72.30;;;;;;5058259;28;20421;-67
2022/03/28 09:13:46;;;;;;;;;;;11.50;72.30;;;;;;5054721;28;19927;-67
2022/03/28 09:16:17;;;;;;;;;;;11.60;72.20;;;;;;5050762;28;19908;-67
2022/03/28 09:18:43;;;;;;;;;;;11.60;72.10;;;;;;5063101;28;19909;-68
2022/03/28 09:21:11;;;;;;;;;;;11.70;72.10;;;;;;5058414;28;19971;-67
2022/03/28 09:23:38;;;;;;;;;;;11.70;72.10;;;;;;5051293;28;19919;-67
2022/03/28 09:26:07;;;;;;;;;;;11.70;72.10;;;;;;5033946;28;19909;-68
2022/03/28 09:28:38;;;;;;;;;;;11.80;72.00;;;;;;5060709;28;19917;-67
2022/03/28 09:31:24;;;;;;;;;;;11.80;72.10;;;;;;5061289;28;19993;-67
2022/03/28 09:34:09;;;;;;;;;;;11.80;72.00;;;;;;5053259;28;19924;-67
2022/03/28 09:36:35;;;;;;;;;;;11.90;72.20;;;;;;5072603;28;19935;-67
2022/03/28 09:39:01;;;;;;;;;;;11.90;73.60;;;;;;5056041;28;20514;-67
2022/03/28 09:41:30;;;;;;;;;;;12.00;72.20;;;;;;5055995;28;19916;-67
2022/03/28 09:43:56;;;;;;;;;;;12.00;72.20;;;;;;5060336;28;19935;-67
2022/03/28 09:46:30;;;;;;;;;;;12.00;72.30;;;;;;5056244;28;19931;-67
2022/03/28 09:48:58;;;;;;;;;;;12.00;72.50;;;;;;5036508;28;19920;-67
2022/03/28 09:51:25;;;;;;;;;;;12.10;72.50;;;;;;5038706;28;20277;-67
2022/03/28 09:53:51;;;;;;;;;;;12.10;72.50;;;;;;5059770;28;19920;-67
2022/03/28 09:56:16;;;;;;;;;;;12.10;72.40;;;;;;5053929;28;19912;-67
2022/03/28 09:58:48;;;;;;;;;;;12.20;72.40;;;;;;5056048;28;19920;-67
2022/03/28 10:01:14;;;;;;;;;;;12.20;72.50;;;;;;5058035;28;20230;-67
2022/03/28 10:03:40;;;;;;;;;;;12.30;72.60;;;;;;5039693;28;19912;-67
2022/03/28 10:06:06;;;;;;;;;;;12.30;72.40;;;;;;5052344;28;20161;-67
2022/03/28 10:08:32;;;;;;;;;;;12.40;72.50;;;;;;5042671;28;19913;-67
2022/03/28 10:10:58;;;;;;;;;;;12.40;73.80;;;;;;5042372;28;19927;-67
2022/03/28 10:13:25;;;;;;;;;;;12.50;73.50;;;;;;5030831;28;20083;-67
2022/03/28 10:15:51;;;;;;;;;;;12.50;75.00;;;;;;5045137;28;20082;-67
2022/03/28 10:18:17;;;;;;;;;;;12.50;73.20;;;;;;5061985;28;20007;-67
2022/03/28 10:20:43;;;;;;;;;;;12.50;72.90;;;;;;5057349;28;20561;-67
2022/03/28 10:23:11;;;;;;;;;;;12.60;72.90;;;;;;5038201;28;19952;-67
2022/03/28 10:25:38;;;;;;;;;;;12.70;73.00;;;;;;5062209;28;19920;-67
2022/03/28 10:28:04;;;;;;;;;;;12.70;73.10;;;;;;5051026;28;20030;-67
2022/03/28 10:30:30;;;;;;;;;;;12.70;74.00;;;;;;5054678;28;20022;-67
2022/03/28 10:33:08;;;;;;;;;;;12.80;73.30;;;;;;5058624;28;19920;-67
2022/03/28 10:35:33;;;;;;;;;;;12.80;73.10;;;;;;5055984;28;19924;-67
2022/03/28 10:38:16;;;;;;;;;;;12.90;73.80;;;;;;5042573;28;20072;-67
2022/03/28 10:40:52;;;;;;;;;;;13.00;73.70;;;;;;5040501;28;20395;-67
2022/03/28 10:43:18;;;;;;;;;;;13.10;73.60;;;;;;5060585;28;20011;-67
2022/03/28 10:45:43;;;;;;;;;;;13.10;74.30;;;;;;5058542;28;20006;-67
2022/03/28 10:48:10;;;;;;;;;;;13.20;74.50;;;;;;5052636;28;19936;-67
2022/03/28 10:50:37;;;;;;;;;;;13.30;74.60;;;;;;5035916;28;19967;-67
2022/03/28 10:53:05;;;;;;;;;;;13.40;74.70;;;;;;5060633;28;19912;-67
2022/03/28 10:55:51;;;;;;;;;;;13.50;74.70;;;;;;5057180;28;20441;-67
2022/03/28 10:58:26;;;;;;;;;;;13.60;74.70;;;;;;5052418;28;20269;-67
2022/03/28 11:01:13;;;;;;;;;;;13.60;74.00;;;;;;5055315;28;19916;-67
2022/03/28 11:03:38;;;;;;;;;;;13.70;73.80;;;;;;5054261;28;19966;-67
2022/03/28 11:06:04;;;;;;;;;;;13.90;73.60;;;;;;5052838;28;20328;-67
2022/03/28 11:08:34;;;;;;;;;;;14.00;73.60;;;;;;5059910;28;19912;-67
2022/03/28 11:11:16;;;;;;;;;;;14.10;73.50;;;;;;5042072;28;19913;-67
2022/03/28 11:13:41;;;;;;;;;;;14.20;73.30;;;;;;5050148;28;20361;-67
2022/03/28 11:16:19;;;;;;;;;;;14.40;73.30;;;;;;5047505;28;20031;-67
2022/03/28 11:19:04;;;;;;;;;;;14.50;73.00;;;;;;5037349;28;19923;-67
2022/03/28 11:21:30;;;;;;;;;;;14.60;73.40;;;;;;5054930;28;19932;-67
2022/03/28 11:24:08;;;;;;;;;;;14.70;73.10;;;;;;5053178;28;19931;-67
2022/03/28 11:26:34;;;;;;;;;;;14.90;73.10;;;;;;5060654;28;19912;-67
2022/03/28 11:29:04;;;;;;;;;;;15.00;72.20;;;;;;5054649;28;19985;-67
2022/03/28 11:31:30;;;;;;;;;;;15.00;72.50;;;;;;5050145;28;20001;-67
2022/03/28 11:33:56;;;;;;;;;;;15.10;72.30;;;;;;5032645;28;19955;-67
2022/03/28 11:36:22;;;;;;;;;;;15.30;72.60;;;;;;5056645;28;19979;-67
2022/03/28 11:38:55;;;;;;;;;;;15.30;72.20;;;;;;5037685;28;19913;-68
2022/03/28 11:41:22;;;;;;;;;;;15.50;72.10;;;;;;5037012;28;19920;-67
2022/03/28 11:43:49;;;;;;;;;;;15.50;72.10;;;;;;5060331;28;19912;-67
2022/03/28 11:46:23;;;;;;;;;;;15.70;72.40;;;;;;5032535;28;20027;-67
2022/03/28 11:48:56;;;;;;;;;;;15.70;71.60;;;;;;5055390;28;19927;-67
2022/03/28 11:51:23;;;;;;;;;;;15.80;72.10;;;;;;5061099;28;19920;-67
2022/03/28 11:53:51;;;;;;;;;;;15.90;71.60;;;;;;5033354;28;20135;-67
2022/03/28 11:56:27;;;;;;;;;;;16.00;72.00;;;;;;5053506;28;20015;-67
2022/03/28 11:59:06;;;;;;;;;;;16.10;71.10;;;;;;5055723;28;19912;-67
2022/03/28 12:01:32;;;;;;;;;;;16.10;71.40;;;;;;5060397;28;19961;-68
2022/03/28 12:03:58;;;;;;;;;;;16.30;71.30;;;;;;5055090;28;20388;-67
2022/03/28 12:06:31;;;;;;;;;;;16.30;71.30;;;;;;5053451;28;19919;-67
2022/03/28 12:08:57;;;;;;;;;;;16.40;71.10;;;;;;5057076;28;19920;-67
2022/03/28 12:11:23;;;;;;;;;;;16.50;71.30;;;;;;5058155;28;19913;-67
2022/03/28 12:13:49;;;;;;;;;;;16.50;70.90;;;;;;5038614;28;19917;-67
2022/03/28 12:16:15;;;;;;;;;;;16.50;70.90;;;;;;5057545;28;19939;-67
2022/03/28 12:18:40;;;;;;;;;;;16.60;71.10;;;;;;5048555;28;19924;-67
2022/03/28 12:21:06;;;;;;;;;;;16.60;71.10;;;;;;5055276;28;20041;-67
2022/03/28 12:23:31;;;;;;;;;;;16.70;71.40;;;;;;5054381;28;20542;-67
2022/03/28 12:26:00;;;;;;;;;;;16.80;71.20;;;;;;5059590;28;19919;-67
2022/03/28 12:28:30;;;;;;;;;;;16.80;71.30;;;;;;5055157;28;19924;-67
2022/03/28 12:30:58;;;;;;;;;;;16.90;71.10;;;;;;5056117;28;20351;-67
2022/03/28 12:33:26;;;;;;;;;;;16.90;71.00;;;;;;5058297;28;19912;-67
2022/03/28 12:36:12;;;;;;;;;;;17.00;71.50;;;;;;5058183;28;19934;-68
2022/03/28 12:38:41;;;;;;;;;;;17.00;71.10;;;;;;5037753;28;19913;-67
2022/03/28 12:41:10;;;;;;;;;;;17.00;71.00;;;;;;5040830;28;19961;-67
2022/03/28 12:43:36;;;;;;;;;;;17.00;70.80;;;;;;5056710;28;20723;-67
2022/03/28 12:46:05;;;;;;;;;;;17.10;70.80;;;;;;5042108;28;19912;-67
2022/03/28 12:48:46;;;;;;;;;;;17.10;71.10;;;;;;5056069;28;19962;-67
2022/03/28 12:51:12;;;;;;;;;;;17.20;71.30;;;;;;5059647;28;19923;-68
2022/03/28 12:53:39;;;;;;;;;;;17.20;71.20;;;;;;5029426;28;20545;-67
2022/03/28 12:56:21;;;;;;;;;;;17.20;71.10;;;;;;5054922;28;19918;-67
2022/03/28 12:58:53;;;;;;;;;;;17.30;71.00;;;;;;5057575;28;19912;-67
2022/03/28 13:01:23;;;;;;;;;;;17.30;71.00;;;;;;5056813;28;19917;-67
2022/03/28 13:03:49;;;;;;;;;;;17.40;70.90;;;;;;5057935;28;20522;-68
2022/03/28 13:06:16;;;;;;;;;;;17.40;71.10;;;;;;5031871;28;19955;-67
2022/03/28 13:08:43;;;;;;;;;;;17.40;70.80;;;;;;5056206;28;20249;-67
2022/03/28 13:11:16;;;;;;;;;;;17.40;70.60;;;;;;5033403;28;19916;-67
2022/03/28 13:13:45;;;;;;;;;;;17.50;70.80;;;;;;5042551;28;20017;-67
2022/03/28 13:16:11;;;;;;;;;;;17.50;70.40;;;;;;5035021;28;19916;-67
2022/03/28 13:18:37;;;;;;;;;;;17.50;70.30;;;;;;5032624;28;19939;-67
2022/03/28 13:21:03;;;;;;;;;;;17.50;70.10;;;;;;5055051;28;19913;-68
2022/03/28 13:23:32;;;;;;;;;;;17.60;70.20;;;;;;5053516;28;19932;-67
2022/03/28 13:26:08;;;;;;;;;;;17.60;70.30;;;;;;5059299;28;19912;-67
2022/03/28 13:28:33;;;;;;;;;;;17.70;70.20;;;;;;5038090;28;20010;-67
2022/03/28 13:31:00;;;;;;;;;;;17.60;69.80;;;;;;5056413;28;19955;-67
2022/03/28 13:33:26;;;;;;;;;;;17.60;69.70;;;;;;5050532;28;19917;-67
2022/03/28 13:35:53;;;;;;;;;;;17.60;70.00;;;;;;5051415;28;20786;-67
2022/03/28 13:38:21;;;;;;;;;;;17.70;70.00;;;;;;5056234;28;19917;-67
2022/03/28 13:40:48;;;;;;;;;;;17.60;70.20;;;;;;5054611;28;19920;-68
2022/03/28 13:43:14;;;;;;;;;;;17.60;70.30;;;;;;5035504;28;20362;-67
2022/03/28 13:45:40;;;;;;;;;;;17.60;70.30;;;;;;5061160;28;19920;-67
2022/03/28 13:48:07;;;;;;;;;;;17.60;70.20;;;;;;5052976;28;19924;-67
2022/03/28 13:50:33;;;;;;;;;;;17.70;70.20;;;;;;5059634;28;19913;-67
2022/03/28 13:52:59;;;;;;;;;;;17.70;70.00;;;;;;5043703;28;19985;-67
2022/03/28 13:55:25;;;;;;;;;;;17.70;69.70;;;;;;5046526;28;19986;-67
2022/03/28 13:57:52;;;;;;;;;;;17.70;69.70;;;;;;5058907;28;20565;-67
2022/03/28 14:00:18;;;;;;;;;;;17.70;69.10;;;;;;5060544;28;19947;-67
2022/03/28 14:02:43;;;;;;;;;;;17.80;69.30;;;;;;5044398;28;20058;-67
2022/03/28 14:05:09;;;;;;;;;;;17.80;68.80;;;;;;5061692;28;19919;-67
2022/03/28 14:07:35;;;;;;;;;;;17.90;68.70;;;;;;5056753;28;19986;-68
2022/03/28 14:10:02;;;;;;;;;;;17.90;68.50;;;;;;5058246;28;20082;-67
2022/03/28 14:12:29;;;;;;;;;;;18.00;68.40;;;;;;5044866;28;20305;-67
2022/03/28 14:14:55;;;;;;;;;;;18.00;68.30;;;;;;5062161;28;19913;-67
2022/03/28 14:17:21;;;;;;;;;;;18.00;68.30;;;;;;5059287;28;20295;-67
2022/03/28 14:19:46;;;;;;;;;;;18.00;68.00;;;;;;5061854;28;19913;-68
2022/03/28 14:22:12;;;;;;;;;;;18.10;68.00;;;;;;5060863;28;20372;-67
2022/03/28 14:24:37;;;;;;;;;;;18.10;67.90;;;;;;5043396;28;19908;-68